Time;durP1;ratioP1;P1;durP2;ratioP2;P2;SDS_P1;SDS_P2;PMS_P1;PMS_P2;Temp;Humidity;BMP_temperature;BMP_pressure;BME280_temperature;BME280_humidity;BME280_pressure;Samples;Min_cycle;Max_cycle;Signal;HPM_P1;HPM_P2
2021/11/28 00:02:53;;;;;;;;;48.75;39.00;;;;;10.01;50.58;96944.56;6152130;28;96895;-65
2021/11/28 00:06:00;;;;;;;;;46.00;37.60;;;;;9.89;50.59;96939.41;6178971;28;96468;-67
2021/11/28 00:12:41;;;;;;;;;51.40;41.00;;;;;9.78;50.74;96940.44;6166574;28;96976;-64
2021/11/28 00:15:44;;;;;;;;;52.00;40.00;;;;;9.66;51.25;96939.06;6149713;28;96925;-66
2021/11/28 00:18:48;;;;;;;;;48.60;39.00;;;;;9.64;51.07;96933.91;6150228;28;98853;-67
2021/11/28 00:21:53;;;;;;;;;50.00;41.00;;;;;9.67;51.01;96938.78;6174507;28;97399;-65
2021/11/28 00:24:57;;;;;;;;;47.00;38.20;;;;;9.66;50.57;96928.28;6170610;28;97376;-67
2021/11/28 00:28:00;;;;;;;;;49.60;39.00;;;;;9.65;50.46;96922.09;6172690;28;96916;-64
2021/11/28 00:31:04;;;;;;;;;46.75;37.75;;;;;9.66;50.58;96917.53;6160682;28;98602;-67
2021/11/28 00:34:11;;;;;;;;;46.20;36.00;;;;;9.62;50.25;96916.44;6177671;28;96903;-64
2021/11/28 00:37:16;;;;;;;;;47.00;36.00;;;;;9.59;50.32;96917.75;6171696;28;97444;-67
2021/11/28 00:40:21;;;;;;;;;46.80;37.80;;;;;9.55;50.81;96917.47;6160156;28;97494;-66
2021/11/28 00:43:26;;;;;;;;;51.60;39.80;;;;;9.49;51.34;96915.03;6147367;28;97204;-66
2021/11/28 00:46:29;;;;;;;;;50.00;39.00;;;;;9.45;51.19;96917.44;6164018;28;96666;-66
2021/11/28 00:49:34;;;;;;;;;47.60;38.00;;;;;9.43;50.87;96924.94;6187262;28;96546;-67
2021/11/28 00:52:40;;;;;;;;;47.00;38.40;;;;;9.36;50.96;96904.75;6189248;28;98108;-67
2021/11/28 00:55:44;;;;;;;;;49.80;39.00;;;;;9.36;51.02;96910.94;6190602;28;97006;-66
2021/11/28 00:58:48;;;;;;;;;49.50;39.50;;;;;9.46;51.42;96931.69;6158549;28;98236;-66
2021/11/28 01:01:51;;;;;;;;;47.60;38.00;;;;;9.45;51.16;96925.50;6172797;28;97915;-66
2021/11/28 01:04:55;;;;;;;;;51.50;39.00;;;;;9.44;51.23;96929.25;6172675;28;96603;-65
2021/11/28 01:08:00;;;;;;;;;52.00;42.00;;;;;9.45;51.33;96922.81;6172864;28;96663;-65
2021/11/28 01:11:04;;;;;;;;;50.40;38.00;;;;;9.44;50.96;96923.88;6163345;28;97111;-67
2021/11/28 01:14:07;;;;;;;;;50.60;40.00;;;;;9.33;50.78;96926.81;6189221;28;96518;-67
2021/11/28 01:17:10;;;;;;;;;52.00;41.00;;;;;9.24;51.00;96922.97;6191139;28;97043;-67
2021/11/28 01:20:14;;;;;;;;;48.40;39.40;;;;;9.21;51.04;96935.06;6192069;28;97435;-67
2021/11/28 01:23:18;;;;;;;;;50.00;39.00;;;;;9.18;51.07;96935.59;6190244;28;97635;-65
2021/11/28 01:26:22;;;;;;;;;55.40;42.00;;;;;9.20;51.23;96928.06;6191137;28;97397;-65
2021/11/28 01:29:26;;;;;;;;;49.00;39.00;;;;;9.22;51.26;96931.31;6159895;28;97926;-65
2021/11/28 01:32:29;;;;;;;;;51.00;41.25;;;;;9.22;51.19;96927.81;6143399;28;97074;-67
2021/11/28 01:35:35;;;;;;;;;49.25;39.25;;;;;9.22;51.32;96920.56;6171387;28;97339;-65
2021/11/28 01:38:40;;;;;;;;;50.00;39.75;;;;;9.25;51.45;96925.41;6171050;28;97409;-67
2021/11/28 01:41:44;;;;;;;;;51.60;41.00;;;;;9.27;51.42;96912.53;6190159;28;96568;-67
2021/11/28 01:44:49;;;;;;;;;51.40;40.00;;;;;9.26;51.35;96912.78;6165032;28;96622;-66
2021/11/28 01:47:54;;;;;;;;;49.00;39.00;;;;;9.27;51.32;96911.72;6158992;28;97219;-65
2021/11/28 01:51:02;;;;;;;;;50.40;40.20;;;;;9.30;51.38;96919.25;6174556;28;97116;-67
2021/11/28 01:54:12;;;;;;;;;47.40;39.00;;;;;9.34;51.38;96913.06;6166649;28;97372;-65
2021/11/28 01:57:15;;;;;;;;;46.20;38.00;;;;;9.35;51.62;96909.31;6167607;28;96913;-65
2021/11/28 02:00:22;;;;;;;;;51.00;39.00;;;;;9.37;51.41;96922.50;6153023;28;98507;-67
2021/11/28 02:03:27;;;;;;;;;51.60;40.60;;;;;9.39;51.76;96937.31;6147578;28;97761;-66
2021/11/28 02:06:30;;;;;;;;;49.40;38.20;;;;;9.44;51.85;96918.50;6174293;28;97096;-65
2021/11/28 02:09:37;;;;;;;;;50.80;40.40;;;;;9.50;51.92;96925.53;6142112;28;96907;-66
2021/11/28 02:12:41;;;;;;;;;51.00;40.00;;;;;9.55;51.67;96927.44;6178888;28;97009;-66
2021/11/28 02:15:45;;;;;;;;;49.00;38.00;;;;;9.55;51.63;96928.25;6189406;28;96443;-65
2021/11/28 02:18:50;;;;;;;;;48.00;38.80;;;;;9.53;51.63;96925.00;6176852;28;96386;-66
2021/11/28 02:21:55;;;;;;;;;49.60;39.60;;;;;9.54;51.58;96933.88;6165640;28;98051;-66
2021/11/28 02:24:58;;;;;;;;;47.20;37.80;;;;;9.54;52.03;96926.63;6156120;28;96260;-66
2021/11/28 02:28:02;;;;;;;;;52.40;40.60;;;;;9.51;50.96;96929.84;6155494;28;97660;-66
2021/11/28 02:31:06;;;;;;;;;50.50;41.75;;;;;9.41;50.78;96937.06;6171156;28;97134;-66
2021/11/28 02:34:10;;;;;;;;;52.20;40.60;;;;;9.29;50.97;96937.25;6189091;28;97090;-65
2021/11/28 02:37:15;;;;;;;;;52.00;42.00;;;;;9.22;51.09;96938.56;6154820;28;100083;-66
2021/11/28 02:40:21;;;;;;;;;53.00;43.00;;;;;9.24;50.95;96944.47;6130872;28;96958;-66
2021/11/28 02:43:27;;;;;;;;;55.50;43.00;;;;;9.18;51.45;96949.03;6161353;28;97475;-66
2021/11/28 02:46:31;;;;;;;;;56.67;43.33;;;;;9.08;51.75;96957.84;6144243;28;99585;-66
2021/11/28 02:49:35;;;;;;;;;57.00;43.80;;;;;8.97;52.34;96960.72;6152622;28;97154;-64
2021/11/28 02:52:40;;;;;;;;;59.20;45.00;;;;;9.03;52.43;96965.06;6169953;28;97918;-66
2021/11/28 02:55:46;;;;;;;;;53.20;42.80;;;;;9.10;52.19;96957.56;6179807;28;96937;-66
2021/11/28 02:58:50;;;;;;;;;57.60;44.40;;;;;9.19;52.49;96958.69;6183461;28;97075;-66
2021/11/28 03:01:53;;;;;;;;;55.50;43.50;;;;;9.25;52.42;96952.28;6170255;28;97414;-66
2021/11/28 03:05:26;;;;;;;;;55.50;44.00;;;;;9.31;52.37;96942.38;6168355;28;97017;-66
2021/11/28 03:08:34;;;;;;;;;57.00;44.00;;;;;9.27;52.33;96933.22;6131938;28;98168;-66
2021/11/28 03:11:37;;;;;;;;;57.40;45.00;;;;;9.39;52.34;96939.19;6174344;28;96557;-66
2021/11/28 03:14:41;;;;;;;;;56.60;44.00;;;;;9.39;52.56;96918.47;6141363;28;98562;-66
2021/11/28 03:17:45;;;;;;;;;57.25;44.00;;;;;9.47;52.41;96918.00;6163108;28;97538;-66
2021/11/28 03:20:51;;;;;;;;;58.00;45.20;;;;;9.50;52.54;96922.03;6183849;28;96524;-66
2021/11/28 03:23:59;;;;;;;;;58.00;45.40;;;;;9.46;52.70;96920.94;6173443;28;97161;-64
2021/11/28 03:27:02;;;;;;;;;62.00;45.00;;;;;9.49;52.71;96925.78;6171654;28;97410;-67
2021/11/28 03:30:08;;;;;;;;;58.25;43.00;;;;;9.37;52.79;96906.38;6159080;28;96630;-65
2021/11/28 03:33:50;;;;;;;;;57.20;44.00;;;;;9.45;52.82;96922.00;6148827;28;97413;-65
2021/11/28 03:37:03;;;;;;;;;57.00;45.40;;;;;9.40;52.64;96930.88;6145117;28;97117;-65
2021/11/28 03:40:10;;;;;;;;;57.00;45.00;;;;;9.39;52.73;96941.88;6146970;28;97192;-65
2021/11/28 03:43:14;;;;;;;;;58.00;45.25;;;;;9.29;52.79;96934.56;6182836;28;97433;-64
2021/11/28 03:46:19;;;;;;;;;60.75;46.00;;;;;9.37;52.77;96960.16;6153172;28;98486;-65
2021/11/28 03:49:22;;;;;;;;;59.20;45.20;;;;;9.30;52.98;96960.38;6152939;28;96649;-66
2021/11/28 03:52:25;;;;;;;;;57.00;44.25;;;;;9.34;53.18;96961.47;6169101;28;97141;-65
2021/11/28 03:55:30;;;;;;;;;57.40;44.00;;;;;9.37;53.36;96957.47;6174764;28;96766;-65
2021/11/28 03:58:35;;;;;;;;;55.60;43.20;;;;;9.41;53.37;96956.69;6171369;28;98880;-66
2021/11/28 04:01:39;;;;;;;;;60.00;46.00;;;;;9.44;53.12;96958.03;6166084;28;100156;-65
2021/11/28 04:04:42;;;;;;;;;59.75;45.75;;;;;9.42;52.69;96944.88;6143138;28;97528;-65
2021/11/28 04:07:46;;;;;;;;;58.00;44.25;;;;;9.42;52.48;96952.13;6163136;28;97368;-65
2021/11/28 04:10:54;;;;;;;;;56.00;46.00;;;;;9.39;52.48;96950.75;6166685;28;97454;-65
2021/11/28 04:13:57;;;;;;;;;62.20;46.20;;;;;9.39;52.35;96955.31;6149005;28;97650;-63
2021/11/28 04:17:01;;;;;;;;;58.60;45.60;;;;;9.33;52.53;96959.88;6131255;28;96674;-65
2021/11/28 04:20:10;;;;;;;;;61.20;47.20;;;;;9.30;52.73;96959.56;6169695;28;97213;-64
2021/11/28 04:23:14;;;;;;;;;62.00;46.60;;;;;9.27;52.82;96960.09;6186974;28;97127;-65
2021/11/28 04:26:19;;;;;;;;;62.40;48.00;;;;;9.29;53.05;96953.38;6160342;28;96583;-64
2021/11/28 04:29:23;;;;;;;;;62.00;48.00;;;;;9.30;52.89;96944.25;6150212;28;97446;-67
2021/11/28 04:32:26;;;;;;;;;65.60;48.00;;;;;9.27;52.97;96939.41;6150012;28;98773;-65
2021/11/28 04:35:34;;;;;;;;;63.60;49.80;;;;;9.29;53.12;96939.94;6145051;28;97611;-66
2021/11/28 04:38:38;;;;;;;;;66.20;49.20;;;;;9.32;53.11;96936.75;6157438;28;97138;-63
2021/11/28 04:41:47;;;;;;;;;63.75;48.75;;;;;9.37;53.00;96941.34;6167630;28;98177;-66
2021/11/28 04:44:51;;;;;;;;;63.20;48.20;;;;;9.39;53.16;96931.13;6184367;28;98143;-66
2021/11/28 04:47:54;;;;;;;;;67.40;49.80;;;;;9.33;53.02;96918.75;6177657;28;96511;-64
2021/11/28 04:51:00;;;;;;;;;65.00;49.00;;;;;9.40;53.01;96905.84;6174351;28;96905;-64
2021/11/28 04:54:04;;;;;;;;;62.60;49.00;;;;;9.38;53.17;96902.63;6169769;28;97458;-66
2021/11/28 04:57:09;;;;;;;;;64.00;49.00;;;;;9.28;53.37;96902.56;6131572;28;96688;-66
2021/11/28 05:00:16;;;;;;;;;67.00;51.00;;;;;9.04;52.95;96892.22;6149570;28;98188;-65
2021/11/28 05:03:42;;;;;;;;;65.00;49.80;;;;;9.16;53.39;96908.16;6162123;28;97053;-65
2021/11/28 05:07:04;;;;;;;;;64.60;49.00;;;;;9.02;53.73;96905.13;6168841;28;97035;-66
2021/11/28 05:10:12;;;;;;;;;64.00;49.00;;;;;8.80;54.10;96917.84;6143808;28;97921;-65
2021/11/28 05:13:36;;;;;;;;;64.60;49.00;;;;;8.84;54.13;96913.63;6173501;28;96562;-66
2021/11/28 05:16:40;;;;;;;;;64.00;48.20;;;;;8.99;53.91;96920.97;6160196;28;96624;-64
2021/11/28 05:20:06;;;;;;;;;67.00;49.40;;;;;9.12;53.83;96920.50;6155128;28;96688;-66
2021/11/28 05:23:16;;;;;;;;;62.25;48.00;;;;;9.16;53.61;96910.03;6159193;28;98832;-66
2021/11/28 05:26:22;;;;;;;;;64.80;49.00;;;;;9.28;53.44;96926.78;6175794;28;97023;-66
2021/11/28 05:29:27;;;;;;;;;64.00;48.00;;;;;9.29;53.52;96933.75;6149052;28;96841;-66
2021/11/28 05:32:30;;;;;;;;;62.00;49.00;;;;;9.20;53.56;96936.13;6146465;28;96883;-65
2021/11/28 05:35:52;;;;;;;;;64.00;49.00;;;;;9.18;53.71;96922.16;6146494;28;99478;-67
2021/11/28 05:39:12;;;;;;;;;60.20;45.80;;;;;9.16;53.65;96913.53;6164936;28;98276;-66
2021/11/28 05:42:15;;;;;;;;;62.00;48.00;;;;;9.23;53.61;96916.81;6148682;28;97842;-66
2021/11/28 05:45:23;;;;;;;;;62.75;46.25;;;;;9.26;53.48;96910.91;6169548;28;97164;-67
2021/11/28 05:48:46;;;;;;;;;62.00;48.00;;;;;9.39;53.39;96915.78;6177973;28;96357;-67
2021/11/28 05:52:08;;;;;;;;;64.00;47.25;;;;;9.49;53.15;96910.47;6186389;28;97270;-67
2021/11/28 05:55:15;;;;;;;;;60.00;47.00;;;;;9.56;52.92;96919.09;6169785;28;97954;-67
2021/11/28 05:58:24;;;;;;;;;62.00;46.00;;;;;9.62;52.71;96911.06;6169864;28;96539;-66
2021/11/28 06:01:30;;;;;;;;;63.00;46.60;;;;;9.68;52.61;96915.38;6142885;28;98269;-66
2021/11/28 06:04:36;;;;;;;;;59.00;46.60;;;;;9.73;52.44;96912.69;6156541;28;97126;-67
2021/11/28 06:07:51;;;;;;;;;60.00;47.00;;;;;9.77;52.48;96914.63;6190494;28;96559;-66
2021/11/28 06:10:55;;;;;;;;;60.75;46.00;;;;;9.81;52.35;96904.94;6158094;28;97538;-67
2021/11/28 06:13:58;;;;;;;;;63.00;47.00;;;;;9.86;52.13;96909.53;6185503;28;97423;-67
2021/11/28 06:17:08;;;;;;;;;58.60;45.40;;;;;9.90;52.18;96914.09;6168176;28;99588;-67
2021/11/28 06:20:31;;;;;;;;;62.20;47.40;;;;;9.94;52.00;96915.19;6190386;28;96464;-67
2021/11/28 06:23:45;;;;;;;;;61.00;46.80;;;;;10.02;51.89;96918.44;6165696;28;97512;-67
2021/11/28 06:26:49;;;;;;;;;59.80;46.00;;;;;10.03;51.83;96918.16;6188950;28;97327;-67
2021/11/28 06:29:52;;;;;;;;;62.80;47.20;;;;;10.03;51.77;96910.09;6145061;28;96750;-67
2021/11/28 06:33:13;;;;;;;;;62.00;46.20;;;;;10.03;51.85;96912.78;6172056;28;97559;-67
2021/11/28 06:36:40;;;;;;;;;62.40;45.00;;;;;9.89;52.12;96906.28;6152457;28;97174;-64
2021/11/28 06:40:04;;;;;;;;;60.20;46.00;;;;;9.77;52.21;96885.03;6145544;28;97010;-65
2021/11/28 06:43:13;;;;;;;;;58.50;45.00;;;;;9.90;52.18;96913.31;6149498;28;98310;-64
2021/11/28 06:46:17;;;;;;;;;58.80;45.80;;;;;9.90;52.02;96924.88;6171102;28;97215;-66
2021/11/28 06:49:24;;;;;;;;;59.00;45.20;;;;;9.91;52.03;96914.91;6186216;28;97412;-64
2021/11/28 06:52:58;;;;;;;;;61.00;45.80;;;;;9.83;52.13;96894.69;6159590;28;96730;-64
2021/11/28 06:56:08;;;;;;;;;59.50;45.50;;;;;9.88;52.28;96897.41;6189330;28;97588;-66
2021/11/28 06:59:22;;;;;;;;;59.20;47.00;;;;;9.88;52.37;96893.91;6169882;28;97391;-64
2021/11/28 07:02:25;;;;;;;;;60.40;45.60;;;;;9.90;52.31;96892.59;6169513;28;97489;-65
2021/11/28 07:05:30;;;;;;;;;56.40;44.00;;;;;9.84;52.22;96871.28;6173608;28;96808;-66
2021/11/28 07:08:35;;;;;;;;;58.40;44.00;;;;;9.99;52.19;96882.91;6158854;28;97060;-64
2021/11/28 07:11:39;;;;;;;;;60.00;46.00;;;;;10.04;52.20;96875.91;6157036;28;96607;-66
2021/11/28 07:14:43;;;;;;;;;58.40;46.00;;;;;9.91;52.31;96883.44;6165985;28;97167;-65
2021/11/28 07:17:53;;;;;;;;;57.00;45.60;;;;;9.93;52.40;96873.19;6168653;28;96881;-66
2021/11/28 07:21:19;;;;;;;;;62.75;47.00;;;;;10.01;52.42;96882.66;6150677;28;97341;-66
2021/11/28 07:24:26;;;;;;;;;62.75;48.00;;;;;9.84;52.62;96882.88;6167830;28;97546;-66
2021/11/28 07:27:29;;;;;;;;;64.00;47.80;;;;;9.89;52.76;96877.50;6165282;28;97437;-66
2021/11/28 07:30:32;;;;;;;;;64.00;47.80;;;;;9.91;52.60;96872.69;6157979;28;96977;-65
2021/11/28 07:33:56;;;;;;;;;67.00;50.25;;;;;9.92;52.71;96858.13;6162413;28;96408;-65
2021/11/28 07:37:24;;;;;;;;;70.80;50.40;;;;;10.05;52.36;96850.63;6164452;28;98746;-64
2021/11/28 07:40:27;;;;;;;;;66.00;50.00;;;;;10.17;52.39;96848.47;6086051;28;1813034;-64
2021/11/28 07:43:47;;;;;;;;;68.50;51.00;;;;;10.23;52.37;96844.72;6154762;28;97855;-66
2021/11/28 07:47:09;;;;;;;;;67.00;50.80;;;;;10.29;51.83;96852.53;6190246;28;97415;-66
2021/11/28 07:50:31;;;;;;;;;67.00;50.60;;;;;10.34;51.78;96849.84;6177894;28;97160;-65
2021/11/28 07:53:38;;;;;;;;;64.75;49.50;;;;;10.39;51.64;96851.75;6166148;28;97342;-65
2021/11/28 07:56:42;;;;;;;;;66.00;50.00;;;;;10.40;51.40;96864.13;6175174;28;96658;-66
2021/11/28 08:00:05;;;;;;;;;65.00;50.00;;;;;10.49;51.49;96867.09;6160593;28;97351;-67
2021/11/28 08:03:19;;;;;;;;;66.25;49.75;;;;;10.54;51.26;96872.47;6166304;28;97891;-66
2021/11/28 08:06:41;;;;;;;;;65.20;49.20;;;;;10.68;51.01;96862.75;6162107;28;97258;-65
2021/11/28 08:09:49;;;;;;;;;62.75;48.00;;;;;10.79;51.16;96858.97;6180980;28;96692;-66
2021/11/28 08:12:52;;;;;;;;;64.80;48.00;;;;;10.90;50.66;96865.94;6158353;28;97372;-65
2021/11/28 08:15:56;;;;;;;;;67.80;50.40;;;;;10.89;50.59;96850.06;6168059;28;96448;-65
2021/11/28 08:18:59;;;;;;;;;66.20;49.20;;;;;10.91;50.58;96864.88;6174368;28;96677;-66
2021/11/28 08:22:03;;;;;;;;;63.00;50.00;;;;;10.95;50.46;96882.13;6154429;28;98406;-65
2021/11/28 08:25:10;;;;;;;;;66.40;50.20;;;;;10.94;50.69;96871.63;6180140;28;97100;-66
2021/11/28 08:28:14;;;;;;;;;62.25;48.00;;;;;11.01;49.90;96875.63;6172528;28;96607;-64
2021/11/28 08:31:17;;;;;;;;;70.00;50.80;;;;;11.02;50.11;96858.38;6165424;28;97389;-65
2021/11/28 08:34:53;;;;;;;;;62.20;47.20;;;;;10.76;50.49;96860.31;6141329;28;96653;-65
2021/11/28 08:37:59;;;;;;;;;65.60;50.00;;;;;10.49;51.10;96857.13;6171387;28;97450;-66
2021/11/28 08:41:04;;;;;;;;;64.00;48.00;;;;;10.33;51.76;96850.94;6167680;28;97198;-66
2021/11/28 08:44:08;;;;;;;;;63.60;46.80;;;;;10.28;51.71;96847.41;6185889;28;96549;-66
2021/11/28 08:47:11;;;;;;;;;60.50;47.50;;;;;10.36;51.61;96841.50;6182559;28;96928;-65
2021/11/28 08:50:16;;;;;;;;;61.60;46.00;;;;;10.46;51.71;96840.69;6184075;28;97195;-66
2021/11/28 08:53:19;;;;;;;;;64.75;48.00;;;;;10.59;51.82;96838.25;6182037;28;96845;-66
2021/11/28 08:56:24;;;;;;;;;64.00;49.00;;;;;10.58;51.66;96825.84;6145753;28;96608;-66
2021/11/28 08:59:29;;;;;;;;;62.25;48.25;;;;;10.33;51.13;96753.16;6190290;28;96689;-67
2021/11/28 09:02:32;;;;;;;;;62.00;47.00;;;;;10.93;50.69;96843.84;6174551;28;96705;-66
2021/11/28 09:05:36;;;;;;;;;67.00;49.00;;;;;11.11;50.37;96845.94;6151371;28;96814;-66
2021/11/28 09:08:39;;;;;;;;;60.00;46.25;;;;;11.18;49.91;96845.66;6179651;28;97084;-65
2021/11/28 09:11:44;;;;;;;;;60.20;45.40;;;;;11.17;49.51;96847.56;6167332;28;97421;-66
2021/11/28 09:14:48;;;;;;;;;63.40;48.00;;;;;11.08;49.36;96845.69;6171477;28;96967;-65
2021/11/28 09:17:54;;;;;;;;;59.40;45.60;;;;;10.94;49.62;96845.47;6173672;28;97156;-67
2021/11/28 09:20:59;;;;;;;;;60.20;46.00;;;;;10.77;49.82;96850.34;6192107;28;97162;-66
2021/11/28 09:27:26;;;;;;;;;56.60;43.60;;;;;10.51;50.62;96852.25;6182408;28;97390;-66
2021/11/28 09:30:31;;;;;;;;;58.00;44.00;;;;;10.53;50.56;96839.34;6161702;28;97447;-66
2021/11/28 09:33:34;;;;;;;;;60.00;45.00;;;;;10.68;50.49;96833.13;6171459;28;96655;-65
2021/11/28 09:36:37;;;;;;;;;55.80;44.00;;;;;10.64;50.46;96834.75;6170544;28;97407;-66
2021/11/28 09:39:44;;;;;;;;;57.80;43.00;;;;;10.64;50.23;96832.88;6176621;28;97488;-66
2021/11/28 09:42:53;;;;;;;;;55.60;42.00;;;;;10.87;50.10;96820.69;6152563;28;96776;-65
2021/11/28 09:45:57;;;;;;;;;57.40;43.40;;;;;11.06;49.77;96818.19;6186071;28;97181;-65
2021/11/28 09:49:05;;;;;;;;;52.00;40.40;;;;;11.14;49.02;96813.03;6188531;28;97522;-66
2021/11/28 09:52:11;;;;;;;;;49.25;39.00;;;;;11.14;48.83;96812.25;6182207;28;97486;-66
2021/11/28 09:55:15;;;;;;;;;48.00;39.20;;;;;11.30;48.57;96824.56;6174812;28;96631;-64
2021/11/28 09:58:20;;;;;;;;;48.00;38.00;;;;;11.54;48.78;96803.94;6169985;28;96836;-66
2021/11/28 10:01:25;;;;;;;;;48.40;39.60;;;;;11.66;47.99;96795.53;6164853;28;97167;-64
2021/11/28 10:04:29;;;;;;;;;47.00;39.00;;;;;11.54;47.95;96778.84;6188140;28;97160;-65
2021/11/28 10:07:33;;;;;;;;;46.50;38.50;;;;;11.62;47.87;96768.31;6162020;28;97413;-65
2021/11/28 10:10:36;;;;;;;;;47.00;38.00;;;;;11.73;47.69;96747.47;6182150;28;97452;-65
2021/11/28 10:13:41;;;;;;;;;47.00;36.40;;;;;12.07;47.43;96740.16;6156303;28;98330;-64
2021/11/28 10:16:44;;;;;;;;;49.40;37.00;;;;;12.58;46.35;96750.50;6182979;28;98183;-64
2021/11/28 10:19:48;;;;;;;;;42.60;35.00;;;;;12.78;45.27;96753.00;6180312;28;96647;-65
2021/11/28 10:22:52;;;;;;;;;41.25;35.00;;;;;13.31;44.97;96732.09;6160031;28;98480;-64
2021/11/28 10:26:13;;;;;;;;;44.60;36.00;;;;;13.72;43.46;96737.72;6173817;28;97034;-65
2021/11/28 10:29:17;;;;;;;;;44.75;36.00;;;;;14.07;43.80;96741.78;6168354;28;97512;-65
2021/11/28 10:32:24;;;;;;;;;45.40;37.40;;;;;14.19;43.09;96728.56;6144178;28;98578;-64
2021/11/28 10:35:28;;;;;;;;;47.00;35.80;;;;;14.22;41.37;96744.22;6155015;28;97512;-64
2021/11/28 10:38:36;;;;;;;;;39.60;33.60;;;;;14.14;42.33;96734.06;6185002;28;97479;-65
2021/11/28 10:41:48;;;;;;;;;46.50;35.50;;;;;13.76;41.73;96724.41;6155508;28;96729;-66
2021/11/28 10:45:02;;;;;;;;;43.50;34.00;;;;;13.71;42.25;96724.47;6166280;28;97494;-66
2021/11/28 10:48:08;;;;;;;;;44.67;35.00;;;;;13.80;42.74;96714.59;6184792;28;97292;-65
2021/11/28 10:51:23;;;;;;;;;45.00;35.60;;;;;14.16;42.24;96709.41;6144795;28;99558;-66
2021/11/28 10:54:31;;;;;;;;;41.60;33.00;;;;;14.04;42.42;96711.75;6175385;28;97409;-66
2021/11/28 10:57:34;;;;;;;;;43.60;35.60;;;;;13.97;42.72;96705.94;6175718;28;97535;-66
2021/11/28 11:00:41;;;;;;;;;41.20;34.40;;;;;13.53;42.36;96695.53;6167738;28;96466;-65
2021/11/28 11:03:48;;;;;;;;;41.00;33.20;;;;;13.30;43.06;96708.81;6185348;28;97771;-66
2021/11/28 11:07:07;;;;;;;;;41.60;33.60;;;;;13.15;43.54;96703.59;6162788;28;97971;-67
2021/11/28 11:10:19;;;;;;;;;43.00;34.80;;;;;12.94;43.85;96686.84;6173704;28;97188;-64
2021/11/28 11:13:23;;;;;;;;;39.80;33.00;;;;;12.95;44.28;96711.97;6172282;28;96957;-65
2021/11/28 11:16:33;;;;;;;;;39.60;33.20;;;;;12.75;43.87;96718.44;6147785;28;97137;-64
2021/11/28 11:19:39;;;;;;;;;45.00;36.00;;;;;12.62;44.47;96705.59;6170009;28;98557;-64
2021/11/28 11:22:42;;;;;;;;;43.60;33.60;;;;;12.51;44.72;96706.81;6157891;28;97999;-66
2021/11/28 11:25:46;;;;;;;;;42.60;34.00;;;;;12.44;45.19;96695.53;6160852;28;97169;-64
2021/11/28 11:29:10;;;;;;;;;44.00;34.40;;;;;12.42;45.42;96681.47;6147640;28;99795;-64
2021/11/28 11:32:16;;;;;;;;;41.00;33.80;;;;;12.36;45.28;96677.25;6175816;28;97509;-67
2021/11/28 11:35:21;;;;;;;;;42.00;33.00;;;;;12.35;45.29;96662.94;6158622;28;99566;-64
2021/11/28 11:38:27;;;;;;;;;41.60;34.00;;;;;12.31;45.51;96666.50;6181198;28;96633;-66
2021/11/28 11:41:30;;;;;;;;;40.20;34.20;;;;;12.20;45.61;96675.78;6172519;28;97068;-65
2021/11/28 11:44:33;;;;;;;;;40.00;33.00;;;;;12.09;46.06;96667.78;6171195;28;97108;-64
2021/11/28 11:47:39;;;;;;;;;44.00;34.50;;;;;12.03;46.23;96663.50;6185465;28;96703;-65
2021/11/28 11:50:42;;;;;;;;;44.00;35.60;;;;;11.95;46.49;96674.94;6183723;28;97604;-65
2021/11/28 11:53:46;;;;;;;;;47.00;36.00;;;;;11.87;46.75;96672.88;6164431;28;97083;-66
2021/11/28 11:56:56;;;;;;;;;50.40;38.00;;;;;11.51;47.42;96663.41;6183942;28;97065;-65
2021/11/28 12:00:09;;;;;;;;;47.00;38.00;;;;;11.39;48.03;96674.53;6186110;28;98041;-65
2021/11/28 12:03:21;;;;;;;;;47.00;37.50;;;;;11.17;48.43;96666.06;6184540;28;97184;-66
2021/11/28 12:06:46;;;;;;;;;44.60;36.20;;;;;11.20;48.46;96668.19;6183026;28;97105;-65
2021/11/28 12:09:49;;;;;;;;;50.00;38.40;;;;;11.26;48.62;96659.81;6172580;28;97081;-65
2021/11/28 12:12:53;;;;;;;;;46.00;38.25;;;;;11.27;48.66;96655.22;6186152;28;96566;-66
2021/11/28 12:16:14;;;;;;;;;48.00;36.00;;;;;11.18;48.86;96657.72;6166511;28;97416;-65
2021/11/28 12:19:40;;;;;;;;;52.60;40.60;;;;;11.12;49.29;96658.00;6164555;28;97483;-66
2021/11/28 12:22:46;;;;;;;;;43.00;35.80;;;;;11.14;49.44;96659.31;6174071;28;97187;-66
2021/11/28 12:25:51;;;;;;;;;40.20;33.80;;;;;11.14;49.42;96653.16;6187517;28;97528;-66
2021/11/28 12:28:56;;;;;;;;;45.60;36.00;;;;;11.17;49.60;96648.00;6187526;28;97459;-66
2021/11/28 12:32:23;;;;;;;;;45.80;36.00;;;;;11.29;49.76;96636.84;6151649;28;97083;-66
2021/11/28 12:35:38;;;;;;;;;45.00;34.20;;;;;11.34;49.74;96620.63;6129482;28;96715;-63
2021/11/28 12:38:49;;;;;;;;;40.80;35.00;;;;;11.42;49.61;96617.34;6164984;28;97361;-64
2021/11/28 12:42:03;;;;;;;;;47.00;35.20;;;;;11.38;49.70;96602.00;6147672;28;97964;-64
2021/11/28 12:45:07;;;;;;;;;43.60;35.60;;;;;11.37;50.06;96595.81;6159474;28;98045;-66
2021/11/28 12:48:17;;;;;;;;;40.00;34.00;;;;;11.34;50.63;96582.88;6169276;28;100000;-65
2021/11/28 12:51:26;;;;;;;;;42.60;35.00;;;;;11.25;50.52;96577.28;6171682;28;97409;-65
2021/11/28 12:54:30;;;;;;;;;42.00;33.00;;;;;11.16;51.03;96572.78;6182740;28;98035;-64
2021/11/28 12:57:35;;;;;;;;;42.50;35.00;;;;;11.05;51.39;96576.63;6167677;28;97423;-66
2021/11/28 13:00:41;;;;;;;;;42.25;34.50;;;;;11.10;51.51;96557.72;6182859;28;97412;-66
2021/11/28 13:03:45;;;;;;;;;33.50;31.50;;;;;11.05;51.85;96547.78;6148488;28;97694;-66
2021/11/28 13:06:50;;;;;;;;;36.80;32.00;;;;;11.03;51.91;96541.06;6188429;28;96645;-66
2021/11/28 13:09:55;;;;;;;;;33.00;30.20;;;;;10.85;52.33;96550.59;6189191;28;97481;-65
2021/11/28 13:13:01;;;;;;;;;32.00;30.00;;;;;10.83;52.74;96542.00;6138955;28;97718;-66
2021/11/28 13:16:08;;;;;;;;;37.00;31.00;;;;;10.96;52.56;96538.69;6181987;28;96572;-65
2021/11/28 13:19:11;;;;;;;;;37.60;30.40;;;;;10.97;52.42;96531.41;6187580;28;96971;-66
2021/11/28 13:22:42;;;;;;;;;31.80;29.00;;;;;10.89;52.77;96546.28;6137645;28;97498;-65
2021/11/28 13:26:04;;;;;;;;;32.40;28.80;;;;;10.99;52.60;96545.41;6164646;28;97191;-66
2021/11/28 13:29:14;;;;;;;;;33.80;29.60;;;;;10.92;52.91;96555.69;6187329;28;97298;-65
2021/11/28 13:32:18;;;;;;;;;36.20;30.00;;;;;10.98;52.72;96541.91;6189078;28;97129;-65
2021/11/28 13:35:21;;;;;;;;;34.50;31.00;;;;;10.95;52.63;96533.56;6183949;28;96437;-65
2021/11/28 13:38:27;;;;;;;;;38.20;31.40;;;;;10.98;52.82;96533.00;6163288;28;97180;-64
2021/11/28 13:41:31;;;;;;;;;33.00;29.00;;;;;11.02;52.67;96539.44;6186507;28;97006;-66
2021/11/28 13:44:35;;;;;;;;;35.00;30.00;;;;;11.03;52.67;96544.56;6188028;28;96635;-65
2021/11/28 13:47:38;;;;;;;;;32.00;29.00;;;;;10.88;52.87;96539.28;6180313;28;96390;-66
2021/11/28 13:50:46;;;;;;;;;37.00;32.00;;;;;10.76;53.21;96539.63;6146614;28;96724;-65
2021/11/28 13:53:53;;;;;;;;;38.00;31.40;;;;;10.72;53.09;96537.78;6163300;28;97017;-65
2021/11/28 13:56:58;;;;;;;;;39.00;32.00;;;;;10.61;53.41;96522.75;6163532;28;97505;-65
2021/11/28 14:00:05;;;;;;;;;40.60;32.00;;;;;10.53;53.84;96523.34;6163532;28;96820;-65
2021/11/28 14:03:15;;;;;;;;;37.60;32.00;;;;;10.30;54.58;96514.88;6163450;28;97228;-66
2021/11/28 14:06:18;;;;;;;;;44.00;34.40;;;;;10.39;54.13;96507.00;6163844;28;97402;-65
2021/11/28 14:09:24;;;;;;;;;40.75;33.00;;;;;10.53;54.13;96510.69;6176277;28;97335;-65
2021/11/28 14:12:30;;;;;;;;;45.00;35.00;;;;;10.46;54.17;96518.25;6146288;28;97785;-65
2021/11/28 14:15:38;;;;;;;;;44.60;35.00;;;;;10.51;54.36;96512.03;6164506;28;97078;-66
2021/11/28 14:18:42;;;;;;;;;42.20;33.80;;;;;10.52;54.50;96497.47;6163589;28;97545;-66
2021/11/28 14:21:46;;;;;;;;;41.60;34.60;;;;;10.55;54.29;96483.47;6146146;28;97959;-65
2021/11/28 14:25:29;;;;;;;;;45.00;36.00;;;;;10.54;54.20;96479.16;6185310;28;97543;-66
2021/11/28 14:28:34;;;;;;;;;46.00;35.20;;;;;10.55;54.42;96480.78;6166191;28;97136;-65
2021/11/28 14:31:57;;;;;;;;;45.75;36.75;;;;;10.46;55.09;96490.53;6145115;28;97448;-66
2021/11/28 14:35:20;;;;;;;;;51.00;38.00;;;;;10.44;54.84;96474.66;6127921;28;96697;-65
2021/11/28 14:38:33;;;;;;;;;50.40;39.00;;;;;10.40;55.07;96462.84;6135792;28;98895;-65